createdAt,value
2023-04-26T00:00:01.300Z,0.00
2023-04-26T00:01:01.405Z,0.00
2023-04-26T00:02:01.207Z,0.00
2023-04-26T00:03:01.686Z,0.00
2023-04-26T00:04:01.300Z,0.00
2023-04-26T00:05:01.413Z,0.00
2023-04-26T00:06:01.018Z,0.00
2023-04-26T00:07:01.120Z,0.00
2023-04-26T00:08:00.934Z,0.00
2023-04-26T00:09:01.140Z,0.00
2023-04-26T00:10:00.836Z,0.00
2023-04-26T00:11:00.953Z,0.00
2023-04-26T00:12:00.742Z,0.00
2023-04-26T00:13:00.761Z,0.00
2023-04-26T00:14:00.651Z,0.00
2023-04-26T00:15:00.980Z,0.00
2023-04-26T00:16:00.622Z,0.00
2023-04-26T00:17:00.515Z,0.00
2023-04-26T00:18:00.494Z,0.00
2023-04-26T00:19:00.595Z,0.00
2023-04-26T00:20:00.380Z,0.00
2023-04-26T00:21:01.442Z,0.00
2023-04-26T00:22:00.296Z,0.00
2023-04-26T00:23:00.251Z,0.00
2023-04-26T00:24:00.228Z,0.00
2023-04-26T00:25:00.161Z,0.00
2023-04-26T00:26:00.236Z,0.00
2023-04-26T00:27:00.302Z,0.00
2023-04-26T00:28:00.015Z,0.00
2023-04-26T00:28:59.961Z,0.00
2023-04-26T00:30:00.063Z,0.00
2023-04-26T00:30:59.881Z,0.00
2023-04-26T00:31:59.877Z,0.00
2023-04-26T00:32:59.862Z,0.00
2023-04-26T00:33:59.977Z,0.00
2023-04-26T00:34:59.898Z,0.00
2023-04-26T00:35:59.645Z,0.00
2023-04-26T00:36:59.706Z,0.00
2023-04-26T00:37:59.554Z,0.00
2023-04-26T00:38:59.551Z,0.00
2023-04-26T00:39:59.524Z,0.00
2023-04-26T00:40:59.424Z,0.00
2023-04-26T00:41:59.539Z,0.00
2023-04-26T00:42:59.320Z,0.00
2023-04-26T00:43:59.351Z,0.00
2023-04-26T00:44:59.418Z,0.00
2023-04-26T00:45:59.420Z,0.00
2023-04-26T00:46:59.141Z,0.00
2023-04-26T00:47:59.201Z,0.00
2023-04-26T00:48:59.055Z,0.00
2023-04-26T00:49:59.004Z,0.00
2023-04-26T00:50:59.048Z,0.00
2023-04-26T00:51:58.998Z,0.00
2023-04-26T00:52:58.881Z,0.00
2023-04-26T00:53:59.012Z,0.00
2023-04-26T00:54:58.777Z,0.00
2023-04-26T00:55:58.726Z,0.00
2023-04-26T00:56:59.036Z,0.00
2023-04-26T00:57:58.635Z,0.00
2023-04-26T00:58:58.644Z,0.00
2023-04-26T00:59:58.544Z,0.00
2023-04-26T01:00:58.529Z,0.00
2023-04-26T01:01:58.500Z,0.00
2023-04-26T01:02:59.636Z,0.00
2023-04-26T01:03:58.539Z,0.00
2023-04-26T01:04:58.496Z,0.00
2023-04-26T01:05:58.265Z,0.00
2023-04-26T01:06:58.215Z,0.00
2023-04-26T01:07:58.508Z,0.00
2023-04-26T01:08:58.141Z,0.00
2023-04-26T01:09:58.323Z,0.00
2023-04-26T01:10:58.042Z,0.00
2023-04-26T01:11:57.991Z,0.00
2023-04-26T01:12:57.943Z,0.00
2023-04-26T01:13:58.136Z,0.00
2023-04-26T01:14:57.873Z,0.00
2023-04-26T01:15:57.963Z,0.00
2023-04-26T01:16:57.819Z,0.00
2023-04-26T01:17:57.752Z,0.00
2023-04-26T01:18:57.763Z,0.00
2023-04-26T01:19:57.824Z,0.00
2023-04-26T01:20:57.781Z,0.00
2023-04-26T01:21:57.525Z,0.00
2023-04-26T01:22:57.483Z,0.00
2023-04-26T01:23:57.440Z,0.00
2023-04-26T01:24:57.601Z,0.00
2023-04-26T01:25:57.365Z,0.00
2023-04-26T01:26:57.417Z,0.00
2023-04-26T01:27:57.252Z,0.00
2023-04-26T01:28:57.223Z,0.00
2023-04-26T01:29:57.229Z,0.00
2023-04-26T01:30:57.170Z,0.00
2023-04-26T01:31:57.448Z,0.00
2023-04-26T01:32:57.076Z,0.00
2023-04-26T01:33:56.977Z,0.00
2023-04-26T01:34:56.952Z,0.00
2023-04-26T01:35:57.076Z,0.00
2023-04-26T01:36:56.917Z,0.00
2023-04-26T01:37:56.891Z,0.00
2023-04-26T01:38:56.748Z,0.00
2023-04-26T01:39:56.704Z,0.00
2023-04-26T01:40:56.899Z,0.00
2023-04-26T01:41:56.600Z,0.00
2023-04-26T01:42:56.714Z,0.00
2023-04-26T01:43:56.522Z,0.00
2023-04-26T01:44:56.474Z,0.00
2023-04-26T01:45:56.657Z,0.00
2023-04-26T01:46:56.531Z,0.00
2023-04-26T01:47:56.375Z,0.00
2023-04-26T01:48:56.342Z,0.00
2023-04-26T01:49:56.234Z,0.00
2023-04-26T01:50:56.210Z,0.00
2023-04-26T01:51:56.147Z,0.00
2023-04-26T01:52:56.167Z,0.00
2023-04-26T01:53:56.075Z,0.00
2023-04-26T01:54:56.186Z,0.00
2023-04-26T01:55:56.188Z,0.00
2023-04-26T01:56:56.056Z,0.00
2023-04-26T01:57:56.002Z,0.00
2023-04-26T01:58:55.822Z,0.00
2023-04-26T01:59:56.026Z,0.00
2023-04-26T02:00:55.728Z,0.00
2023-04-26T02:01:55.721Z,0.00
2023-04-26T02:02:55.944Z,0.00
2023-04-26T02:03:55.594Z,0.00
2023-04-26T02:04:55.869Z,0.00
2023-04-26T02:05:55.502Z,0.00
2023-04-26T02:06:55.458Z,0.00
2023-04-26T02:07:55.411Z,0.00
2023-04-26T02:08:55.655Z,0.00
2023-04-26T02:09:55.326Z,0.00
2023-04-26T02:10:55.494Z,0.00
2023-04-26T02:11:55.558Z,0.00
2023-04-26T02:12:55.209Z,0.00
2023-04-26T02:13:55.298Z,0.00
2023-04-26T02:14:55.089Z,0.00
2023-04-26T02:15:55.128Z,0.00
2023-04-26T02:16:55.172Z,0.00
2023-04-26T02:17:54.972Z,0.00
2023-04-26T02:18:55.195Z,0.00
2023-04-26T02:19:54.933Z,0.00
2023-04-26T02:20:54.813Z,0.00
2023-04-26T02:21:54.956Z,0.00
2023-04-26T02:22:54.750Z,0.00
2023-04-26T02:23:54.678Z,0.00
2023-04-26T02:24:54.772Z,0.00
2023-04-26T02:25:54.581Z,0.00
2023-04-26T02:26:54.967Z,0.00
2023-04-26T02:27:54.488Z,0.00
2023-04-26T02:28:54.809Z,0.00
2023-04-26T02:29:54.399Z,0.00
2023-04-26T02:30:54.405Z,0.00
2023-04-26T02:31:54.361Z,0.00
2023-04-26T02:32:54.469Z,0.00
2023-04-26T02:33:54.209Z,0.00
2023-04-26T02:34:54.178Z,0.00
2023-04-26T02:35:54.117Z,0.00
2023-04-26T02:36:54.252Z,0.00
2023-04-26T02:37:54.064Z,0.00
2023-04-26T02:38:54.328Z,0.00
2023-04-26T02:39:53.940Z,0.00
2023-04-26T02:40:54.267Z,0.00
2023-04-26T02:41:53.837Z,0.00
2023-04-26T02:42:53.877Z,0.00
2023-04-26T02:43:53.758Z,0.00
2023-04-26T02:44:53.889Z,0.00
2023-04-26T02:45:53.904Z,0.00
2023-04-26T02:46:53.641Z,0.00
2023-04-26T02:47:53.818Z,0.00
2023-04-26T02:48:53.706Z,0.00
2023-04-26T02:49:53.728Z,0.00
2023-04-26T02:50:53.415Z,0.00
2023-04-26T02:51:53.540Z,0.00
2023-04-26T02:52:53.317Z,0.00
2023-04-26T02:53:53.342Z,0.00
2023-04-26T02:54:53.233Z,0.00
2023-04-26T02:55:53.361Z,0.00
2023-04-26T02:56:53.368Z,0.00
2023-04-26T02:57:53.094Z,0.00
2023-04-26T02:58:53.385Z,0.00
2023-04-26T02:59:53.003Z,0.00
2023-04-26T03:00:53.247Z,0.00
2023-04-26T03:01:53.054Z,0.00
2023-04-26T03:02:53.049Z,0.00
2023-04-26T03:03:54.092Z,0.00
2023-04-26T03:04:52.763Z,0.00
2023-04-26T03:05:53.020Z,0.00
2023-04-26T03:06:52.673Z,0.00
2023-04-26T03:07:52.845Z,0.00
2023-04-26T03:08:52.812Z,0.00
2023-04-26T03:09:52.646Z,0.00
2023-04-26T03:10:52.482Z,0.00
2023-04-26T03:11:52.652Z,0.00
2023-04-26T03:12:52.390Z,0.00
2023-04-26T03:13:52.517Z,0.00
2023-04-26T03:14:52.296Z,0.00
2023-04-26T03:15:52.501Z,0.00
2023-04-26T03:16:52.235Z,0.00
2023-04-26T03:17:52.416Z,0.00
2023-04-26T03:18:52.502Z,0.00
2023-04-26T03:19:52.064Z,0.00
2023-04-26T03:20:52.015Z,0.00
2023-04-26T03:21:52.113Z,0.00
2023-04-26T03:22:51.925Z,0.00
2023-04-26T03:23:52.135Z,0.00
2023-04-26T03:24:51.979Z,0.00
2023-04-26T03:25:51.814Z,0.00
2023-04-26T03:26:51.943Z,0.00
2023-04-26T03:27:51.693Z,0.00
2023-04-26T03:28:51.980Z,0.00
2023-04-26T03:29:51.600Z,0.00
2023-04-26T03:30:51.844Z,0.00
2023-04-26T03:31:51.579Z,0.00
2023-04-26T03:32:51.598Z,0.00
2023-04-26T03:33:51.415Z,0.00
2023-04-26T03:34:51.600Z,0.00
2023-04-26T03:35:51.354Z,0.00
2023-04-26T03:36:51.268Z,0.00
2023-04-26T03:37:53.315Z,0.00
2023-04-26T03:38:51.598Z,0.00
2023-04-26T03:39:51.127Z,0.00
2023-04-26T03:40:51.234Z,0.00
2023-04-26T03:41:51.301Z,0.00
2023-04-26T03:42:51.248Z,0.00
2023-04-26T03:43:50.943Z,0.00
2023-04-26T03:44:51.056Z,0.00
2023-04-26T03:45:50.867Z,0.00
2023-04-26T03:46:51.071Z,0.00
2023-04-26T03:47:50.902Z,0.00
2023-04-26T03:48:50.889Z,0.00
2023-04-26T03:49:50.892Z,4.00
2023-04-26T03:50:50.614Z,4.00
2023-04-26T03:51:50.694Z,0.00
2023-04-26T03:52:50.756Z,4.00
2023-04-26T03:53:50.485Z,8.00
2023-04-26T03:54:50.421Z,4.00
2023-04-26T03:55:50.530Z,8.00
2023-04-26T03:56:50.330Z,8.00
2023-04-26T03:57:50.534Z,12.00
2023-04-26T03:58:50.352Z,12.00
2023-04-26T03:59:50.351Z,16.00
2023-04-26T04:00:50.159Z,16.00
2023-04-26T04:01:50.377Z,20.00
2023-04-26T04:02:50.194Z,24.00
2023-04-26T04:03:50.302Z,28.00
2023-04-26T04:04:50.560Z,36.00
2023-04-26T04:05:49.898Z,44.00
2023-04-26T04:06:49.987Z,52.00
2023-04-26T04:07:49.808Z,60.00
2023-04-26T04:08:50.157Z,72.00
2023-04-26T04:09:49.734Z,84.00
2023-04-26T04:10:49.667Z,100.00
2023-04-26T04:11:49.629Z,112.00
2023-04-26T04:12:49.828Z,128.00
2023-04-26T04:13:49.528Z,152.00
2023-04-26T04:14:49.635Z,172.00
2023-04-26T04:15:49.885Z,192.00
2023-04-26T04:16:49.649Z,220.00
2023-04-26T04:17:49.390Z,244.00
2023-04-26T04:18:49.586Z,280.00
2023-04-26T04:19:49.239Z,312.00
2023-04-26T04:20:49.296Z,344.00
2023-04-26T04:21:49.281Z,380.00
2023-04-26T04:22:49.108Z,420.00
2023-04-26T04:23:49.304Z,456.00
2023-04-26T04:24:49.001Z,496.00
2023-04-26T04:25:49.106Z,540.00
2023-04-26T04:26:48.914Z,588.00
2023-04-26T04:27:49.167Z,636.00
2023-04-26T04:28:48.918Z,680.00
2023-04-26T04:29:48.774Z,736.00
2023-04-26T04:30:49.000Z,784.00
2023-04-26T04:31:48.928Z,836.00
2023-04-26T04:32:48.655Z,888.00
2023-04-26T04:33:48.605Z,940.00
2023-04-26T04:34:49.636Z,996.00
2023-04-26T04:35:48.481Z,1052.00
2023-04-26T04:36:48.574Z,1108.00
2023-04-26T04:37:48.391Z,1164.00
2023-04-26T04:38:48.345Z,1224.00
2023-04-26T04:39:48.426Z,1288.00
2023-04-26T04:40:48.393Z,1348.00
2023-04-26T04:41:48.305Z,1412.00
2023-04-26T04:42:48.403Z,1476.00
2023-04-26T04:43:48.103Z,1528.00
2023-04-26T04:44:48.059Z,1596.00
2023-04-26T04:45:48.286Z,1652.00
2023-04-26T04:46:48.272Z,1720.00
2023-04-26T04:47:47.938Z,1788.00
2023-04-26T04:48:48.041Z,1852.00
2023-04-26T04:49:47.827Z,1916.00
2023-04-26T04:50:47.793Z,1972.00
2023-04-26T04:51:48.063Z,2024.00
2023-04-26T04:52:47.679Z,2088.00
2023-04-26T04:53:48.079Z,2156.00
2023-04-26T04:54:47.590Z,2216.00
2023-04-26T04:55:47.541Z,2292.00
2023-04-26T04:56:47.525Z,2360.00
2023-04-26T04:57:47.699Z,2456.00
2023-04-26T04:58:47.396Z,2552.00
2023-04-26T04:59:47.508Z,2648.00
2023-04-26T05:00:47.300Z,2724.00
2023-04-26T05:01:47.291Z,2820.00
2023-04-26T05:02:47.471Z,2928.00
2023-04-26T05:03:47.240Z,3020.00
2023-04-26T05:04:47.636Z,3036.00
2023-04-26T05:05:47.068Z,3028.00
2023-04-26T05:06:47.020Z,3064.00
2023-04-26T05:07:46.973Z,3180.00
2023-04-26T05:08:47.178Z,3336.00
2023-04-26T05:09:46.926Z,3436.00
2023-04-26T05:10:46.992Z,3568.00
2023-04-26T05:11:46.792Z,3536.00
2023-04-26T05:12:46.992Z,3640.00
2023-04-26T05:13:46.698Z,3764.00
2023-04-26T05:14:47.014Z,3800.00
2023-04-26T05:15:46.602Z,3860.00
2023-04-26T05:16:46.958Z,3924.00
2023-04-26T05:17:46.641Z,4088.00
2023-04-26T05:18:46.479Z,4116.00
2023-04-26T05:19:46.634Z,4176.00
2023-04-26T05:20:46.690Z,4308.00
2023-04-26T05:21:46.444Z,4432.00
2023-04-26T05:22:46.457Z,4464.00
2023-04-26T05:23:46.226Z,4556.00
2023-04-26T05:24:46.470Z,4728.00
2023-04-26T05:25:46.136Z,4900.00
2023-04-26T05:26:46.482Z,4884.00
2023-04-26T05:27:46.043Z,4984.00
2023-04-26T05:28:45.992Z,5248.00
2023-04-26T05:29:46.097Z,5512.00
2023-04-26T05:30:45.895Z,5364.00
2023-04-26T05:32:06.439Z,5356.00
2023-04-26T05:32:54.016Z,5428.00
2023-04-26T05:33:54.351Z,5640.00
2023-04-26T05:34:45.929Z,5980.00
2023-04-26T05:35:45.681Z,6016.00
2023-04-26T05:36:45.737Z,6068.00
2023-04-26T05:37:45.634Z,6320.00
2023-04-26T05:38:45.750Z,6380.00
2023-04-26T05:39:45.765Z,6328.00
2023-04-26T05:40:45.430Z,6484.00
2023-04-26T05:41:45.568Z,6920.00
2023-04-26T05:42:45.352Z,7344.00
2023-04-26T05:43:45.582Z,7120.00
2023-04-26T05:44:45.251Z,6792.00
2023-04-26T05:45:45.258Z,6620.00
2023-04-26T05:46:45.162Z,6576.00
2023-04-26T05:47:45.416Z,6716.00
2023-04-26T05:48:45.067Z,6988.00
2023-04-26T05:49:45.227Z,7008.00
2023-04-26T05:50:44.970Z,6852.00
2023-04-26T05:51:44.922Z,6916.00
2023-04-26T05:52:45.249Z,7196.00
2023-04-26T05:53:44.837Z,7624.00
2023-04-26T05:54:45.046Z,8036.00
2023-04-26T05:55:44.757Z,7988.00
2023-04-26T05:56:44.694Z,7748.00
2023-04-26T05:57:44.676Z,8148.00
2023-04-26T05:58:44.878Z,8620.00
2023-04-26T05:59:44.558Z,8868.00
2023-04-26T06:03:47.409Z,8428.00
2023-04-26T06:04:47.518Z,8344.00
2023-04-26T06:05:48.818Z,8148.00
2023-04-26T06:06:47.082Z,8352.00
2023-04-26T06:07:47.219Z,8648.00
2023-04-26T06:08:47.268Z,8688.00
2023-04-26T06:09:47.207Z,8048.00
2023-04-26T06:10:46.915Z,8316.00
2023-04-26T06:11:47.027Z,8968.00
2023-04-26T06:12:46.814Z,9232.00
2023-04-26T06:13:47.030Z,8860.00
2023-04-26T06:14:46.711Z,8956.00
2023-04-26T06:15:46.665Z,8752.00
2023-04-26T06:16:46.964Z,8432.00
2023-04-26T06:17:46.878Z,8932.00
2023-04-26T06:18:46.536Z,9472.00
2023-04-26T06:19:46.664Z,9404.00
2023-04-26T06:20:46.434Z,9120.00
2023-04-26T06:21:46.710Z,9152.00
2023-04-26T06:22:46.363Z,9476.00
2023-04-26T06:23:46.492Z,9864.00
2023-04-26T06:24:46.554Z,9688.00
2023-04-26T06:25:46.206Z,9456.00
2023-04-26T06:26:46.159Z,9916.00
2023-04-26T06:27:46.316Z,10416.00
2023-04-26T06:28:46.076Z,10584.00
2023-04-26T06:29:46.327Z,11036.00
2023-04-26T06:30:45.992Z,11244.00
2023-04-26T06:31:46.183Z,11420.00
2023-04-26T06:32:46.010Z,11592.00
2023-04-26T06:33:45.992Z,12168.00
2023-04-26T06:34:45.833Z,12776.00
2023-04-26T06:35:45.979Z,13184.00
2023-04-26T06:36:46.038Z,13176.00
2023-04-26T06:37:45.658Z,13404.00
2023-04-26T06:38:45.821Z,13920.00
2023-04-26T06:39:45.569Z,13464.00
2023-04-26T06:40:45.817Z,14392.00
2023-04-26T06:41:45.666Z,15112.00
2023-04-26T06:42:45.613Z,15052.00
2023-04-26T06:43:45.392Z,15320.00
2023-04-26T06:44:45.628Z,16424.00
2023-04-26T06:45:45.308Z,17568.00
2023-04-26T06:46:45.576Z,17440.00
2023-04-26T06:47:45.357Z,17312.00
2023-04-26T06:48:45.167Z,17664.00
2023-04-26T06:49:45.306Z,18240.00
2023-04-26T06:50:45.277Z,18272.00
2023-04-26T06:51:45.037Z,20096.00
2023-04-26T06:52:45.272Z,21472.00
2023-04-26T06:53:44.948Z,22144.00
2023-04-26T06:54:56.111Z,23168.00
2023-04-26T06:55:44.896Z,23360.00
2023-04-26T06:56:45.131Z,23840.00
2023-04-26T06:57:44.767Z,21312.00
2023-04-26T06:58:44.910Z,20992.00
2023-04-26T06:59:44.684Z,19136.00
2023-04-26T07:00:44.928Z,14804.00
2023-04-26T07:01:44.897Z,14792.00
2023-04-26T07:02:44.889Z,14936.00
2023-04-26T07:03:44.633Z,16048.00
2023-04-26T07:04:45.108Z,17600.00
2023-04-26T07:05:44.554Z,16200.00
2023-04-26T07:06:44.409Z,19072.00
2023-04-26T07:07:44.564Z,23072.00
2023-04-26T07:08:44.296Z,20608.00
2023-04-26T07:09:44.566Z,20992.00
2023-04-26T07:10:44.200Z,24512.00
2023-04-26T07:11:44.401Z,25376.00
2023-04-26T07:12:44.632Z,26944.00
2023-04-26T07:13:44.408Z,31232.00
2023-04-26T07:14:44.258Z,25440.00
2023-04-26T07:15:44.286Z,26656.00
2023-04-26T07:16:45.493Z,25504.00
2023-04-26T07:17:43.929Z,29728.00
2023-04-26T07:18:44.032Z,34368.00
2023-04-26T07:19:43.869Z,25376.00
2023-04-26T07:20:44.052Z,34848.00
2023-04-26T07:21:43.719Z,31808.00
2023-04-26T07:22:43.854Z,27968.00
2023-04-26T07:23:43.632Z,27008.00
2023-04-26T07:24:44.079Z,24000.00
2023-04-26T07:25:43.556Z,21728.00
2023-04-26T07:26:43.682Z,25920.00
2023-04-26T07:27:43.462Z,30496.00
2023-04-26T07:28:43.713Z,32448.00
2023-04-26T07:29:43.390Z,24128.00
2023-04-26T07:30:43.513Z,22784.00
2023-04-26T07:31:43.303Z,19616.00
2023-04-26T07:32:43.390Z,20768.00
2023-04-26T07:33:43.256Z,18752.00
2023-04-26T07:34:43.340Z,19264.00
2023-04-26T07:35:43.123Z,20224.00
2023-04-26T07:36:43.552Z,22400.00
2023-04-26T07:37:43.032Z,22944.00
2023-04-26T07:38:43.010Z,21824.00
2023-04-26T07:39:42.949Z,20224.00
2023-04-26T07:40:43.193Z,19968.00
2023-04-26T07:41:44.008Z,20000.00
2023-04-26T07:42:42.884Z,19264.00
2023-04-26T07:43:42.937Z,19232.00
2023-04-26T07:44:42.729Z,18912.00
2023-04-26T07:45:42.936Z,21120.00
2023-04-26T07:46:42.645Z,20800.00
2023-04-26T07:47:42.755Z,21248.00
2023-04-26T07:48:42.560Z,23520.00
2023-04-26T07:49:42.563Z,24000.00
2023-04-26T07:50:42.485Z,25120.00
2023-04-26T07:51:42.534Z,25504.00
2023-04-26T07:52:42.387Z,25472.00
2023-04-26T07:53:42.566Z,23552.00
2023-04-26T07:54:42.303Z,22304.00
2023-04-26T07:55:42.415Z,22880.00
2023-04-26T07:56:42.219Z,21632.00
2023-04-26T07:57:42.265Z,22240.00
2023-04-26T07:58:42.129Z,22400.00
2023-04-26T07:59:42.283Z,22208.00
2023-04-26T08:00:42.074Z,22240.00
2023-04-26T08:01:42.218Z,22688.00
2023-04-26T08:02:44.668Z,23200.00
2023-04-26T08:03:42.433Z,22656.00
2023-04-26T08:04:41.951Z,22080.00
2023-04-26T08:05:42.150Z,19776.00
2023-04-26T08:06:41.787Z,18656.00
2023-04-26T08:07:42.130Z,19104.00
2023-04-26T08:08:41.701Z,20960.00
2023-04-26T08:09:41.745Z,23552.00
2023-04-26T08:10:41.613Z,20736.00
2023-04-26T08:11:41.594Z,28160.00
2023-04-26T08:12:41.559Z,25216.00
2023-04-26T08:13:41.569Z,27040.00
2023-04-26T08:14:41.456Z,29120.00
2023-04-26T08:15:41.588Z,23680.00
2023-04-26T08:16:41.387Z,23168.00
2023-04-26T08:17:41.350Z,24864.00
2023-04-26T08:18:50.867Z,30240.00
2023-04-26T08:19:41.220Z,28448.00
2023-04-26T08:20:41.204Z,29312.00
2023-04-26T08:21:41.133Z,32736.00
2023-04-26T08:22:41.100Z,30624.00
2023-04-26T08:23:41.064Z,32352.00
2023-04-26T08:24:41.060Z,39616.00
2023-04-26T08:25:40.961Z,37664.00
2023-04-26T08:26:40.926Z,38592.00
2023-04-26T08:27:40.883Z,41184.00
2023-04-26T08:28:40.861Z,38016.00
2023-04-26T08:29:40.805Z,38272.00
2023-04-26T08:30:40.783Z,39104.00
2023-04-26T08:31:40.740Z,36032.00
2023-04-26T08:32:40.742Z,33888.00
2023-04-26T08:33:40.654Z,35456.00
2023-04-26T08:34:40.584Z,37056.00
2023-04-26T08:35:40.541Z,37568.00
2023-04-26T08:36:40.498Z,38848.00
2023-04-26T08:37:40.460Z,36128.00
2023-04-26T08:38:40.418Z,36096.00
2023-04-26T08:39:40.394Z,38080.00
2023-04-26T08:40:40.338Z,38016.00
2023-04-26T08:41:40.290Z,37632.00
2023-04-26T08:42:40.246Z,37824.00
2023-04-26T08:43:40.213Z,38784.00
2023-04-26T08:44:40.165Z,40288.00
2023-04-26T08:45:40.142Z,39392.00
2023-04-26T08:46:40.223Z,39456.00
2023-04-26T08:47:40.122Z,38624.00
2023-04-26T08:48:40.002Z,36960.00
2023-04-26T08:49:39.967Z,37408.00
2023-04-26T08:50:39.919Z,43296.00
2023-04-26T08:51:39.896Z,44064.00
2023-04-26T08:52:39.838Z,44512.00
2023-04-26T08:53:39.798Z,44896.00
2023-04-26T08:54:39.762Z,43136.00
2023-04-26T08:55:39.718Z,46496.00
2023-04-26T08:56:39.676Z,48576.00
2023-04-26T08:57:39.655Z,50112.00
2023-04-26T08:58:39.595Z,52928.00
2023-04-26T08:59:39.568Z,55904.00
2023-04-26T09:00:39.519Z,55360.00
2023-04-26T09:01:39.508Z,48448.00
2023-04-26T09:02:39.601Z,46624.00
2023-04-26T09:03:39.656Z,49664.00
2023-04-26T09:04:39.476Z,55968.00
2023-04-26T09:05:39.348Z,72800.00
2023-04-26T09:06:39.284Z,71648.00
2023-04-26T09:07:39.241Z,69248.00
2023-04-26T09:08:39.204Z,52448.00
2023-04-26T09:09:39.168Z,51008.00
2023-04-26T09:10:39.126Z,58624.00
2023-04-26T09:11:39.105Z,68064.00
2023-04-26T09:12:39.047Z,58080.00
2023-04-26T09:13:39.022Z,55552.00
2023-04-26T09:14:38.970Z,51360.00
2023-04-26T09:15:39.092Z,53184.00
2023-04-26T09:16:38.980Z,56064.00
2023-04-26T09:17:38.920Z,62752.00
2023-04-26T09:18:38.822Z,60352.00
2023-04-26T09:19:38.779Z,53888.00
2023-04-26T09:20:38.747Z,63040.00
2023-04-26T09:21:38.729Z,55264.00
2023-04-26T09:22:38.665Z,83840.00
2023-04-26T09:23:38.627Z,54528.00
2023-04-26T09:24:38.589Z,60736.00
2023-04-26T09:25:38.749Z,71872.00
2023-04-26T09:26:38.528Z,91328.00
2023-04-26T09:27:38.474Z,100768.00
2023-04-26T09:28:38.443Z,98176.00
2023-04-26T09:29:38.403Z,84768.00
2023-04-26T09:30:38.412Z,86912.00
2023-04-26T09:31:38.435Z,108928.00
2023-04-26T09:32:38.306Z,69728.00
2023-04-26T09:33:38.254Z,99776.00
2023-04-26T09:34:38.223Z,97600.00
2023-04-26T09:35:38.185Z,89152.00
2023-04-26T09:36:38.147Z,96448.00
2023-04-26T09:37:44.292Z,109152.00
2023-04-26T09:38:38.260Z,105632.00
2023-04-26T09:39:38.045Z,101248.00
2023-04-26T09:40:38.004Z,116640.00
2023-04-26T09:41:37.973Z,124512.00
2023-04-26T09:42:37.944Z,107744.00
2023-04-26T09:43:37.904Z,88416.00
2023-04-26T09:44:37.902Z,77568.00
2023-04-26T09:45:37.834Z,81920.00
2023-04-26T09:46:37.844Z,85184.00
2023-04-26T09:47:37.828Z,83200.00
2023-04-26T09:48:37.726Z,69376.00
2023-04-26T09:49:37.695Z,65568.00
2023-04-26T09:50:37.681Z,108576.00
2023-04-26T09:51:37.627Z,87680.00
2023-04-26T09:52:37.628Z,96640.00
2023-04-26T09:53:37.581Z,104768.00
2023-04-26T09:54:37.523Z,93056.00
2023-04-26T09:55:37.499Z,90976.00
2023-04-26T09:56:37.485Z,82528.00
2023-04-26T09:57:37.424Z,76448.00
2023-04-26T09:58:37.409Z,67968.00
2023-04-26T09:59:37.355Z,40064.00
2023-04-26T10:00:37.364Z,71264.00
2023-04-26T10:01:37.365Z,116864.00
2023-04-26T10:02:37.306Z,105472.00
2023-04-26T10:03:37.375Z,103424.00
2023-04-26T10:04:37.259Z,67808.00
2023-04-26T10:05:37.157Z,73984.00
2023-04-26T10:06:37.120Z,81152.00
2023-04-26T10:07:37.086Z,91136.00
2023-04-26T10:08:37.056Z,101280.00
2023-04-26T10:09:37.019Z,80736.00
2023-04-26T10:10:37.016Z,101344.00
2023-04-26T10:11:37.906Z,103808.00
2023-04-26T10:12:36.947Z,92608.00
2023-04-26T10:13:36.924Z,93504.00
2023-04-26T10:14:36.879Z,95072.00
2023-04-26T10:15:36.825Z,98688.00
2023-04-26T10:16:36.850Z,92096.00
2023-04-26T10:17:36.819Z,89408.00
2023-04-26T10:18:36.736Z,95328.00
2023-04-26T10:19:36.691Z,99712.00
2023-04-26T10:20:36.653Z,108064.00
2023-04-26T10:21:36.627Z,118304.00
2023-04-26T10:22:36.598Z,117984.00
2023-04-26T10:23:36.580Z,111616.00
2023-04-26T10:24:36.534Z,111392.00
2023-04-26T10:25:36.498Z,89600.00
2023-04-26T10:26:36.468Z,84960.00
2023-04-26T10:27:36.438Z,99136.00
2023-04-26T10:28:36.414Z,87584.00
2023-04-26T10:29:36.383Z,109696.00
2023-04-26T10:30:36.350Z,109760.00
2023-04-26T10:31:36.342Z,107392.00
2023-04-26T10:32:36.316Z,102336.00
2023-04-26T10:33:36.251Z,100672.00
2023-04-26T10:34:36.227Z,105536.00
2023-04-26T10:35:36.209Z,105344.00
2023-04-26T10:36:36.156Z,46944.00
2023-04-26T10:37:36.127Z,68896.00
2023-04-26T10:38:36.116Z,76096.00
2023-04-26T10:39:36.065Z,49856.00
2023-04-26T10:40:36.045Z,137376.00
2023-04-26T10:41:36.018Z,40576.00
2023-04-26T10:42:35.995Z,111968.00
2023-04-26T10:43:35.943Z,119648.00
2023-04-26T10:44:35.909Z,123744.00
2023-04-26T10:45:35.931Z,133440.00
2023-04-26T10:46:35.910Z,116512.00
2023-04-26T10:47:35.863Z,127840.00
2023-04-26T10:48:35.786Z,137088.00
2023-04-26T10:49:35.755Z,108704.00
2023-04-26T10:50:35.726Z,32960.00
2023-04-26T10:51:35.694Z,31616.00
2023-04-26T10:52:35.666Z,35584.00
2023-04-26T10:53:35.661Z,112736.00
2023-04-26T10:54:35.603Z,110464.00
2023-04-26T10:55:35.587Z,56576.00
2023-04-26T10:56:35.535Z,64896.00
2023-04-26T10:57:35.506Z,118880.00
2023-04-26T10:58:35.482Z,84416.00
2023-04-26T11:00:35.418Z,132160.00
2023-04-26T11:01:35.444Z,144640.00
2023-04-26T11:02:35.399Z,125632.00
2023-04-26T11:03:35.504Z,62496.00
2023-04-26T11:04:35.308Z,115680.00
2023-04-26T11:05:35.263Z,108640.00
2023-04-26T11:06:35.221Z,104160.00
2023-04-26T11:07:35.366Z,122368.00
2023-04-26T11:08:35.172Z,125248.00
2023-04-26T11:09:35.137Z,76704.00
2023-04-26T11:10:36.691Z,107232.00
2023-04-26T11:11:35.074Z,136224.00
2023-04-26T11:12:35.039Z,128576.00
2023-04-26T11:13:35.031Z,108096.00
2023-04-26T11:14:34.979Z,99392.00
2023-04-26T11:15:34.998Z,124000.00
2023-04-26T11:16:35.051Z,85664.00
2023-04-26T11:17:34.912Z,74720.00
2023-04-26T11:18:34.859Z,82336.00
2023-04-26T11:19:34.934Z,75136.00
2023-04-26T11:20:34.808Z,72288.00
2023-04-26T11:21:34.768Z,60736.00
2023-04-26T11:22:34.744Z,57760.00
2023-04-26T11:23:34.708Z,64352.00
2023-04-26T11:24:34.689Z,63776.00
2023-04-26T11:25:34.682Z,54464.00
2023-04-26T11:26:34.631Z,54112.00
2023-04-26T11:27:34.582Z,55136.00
2023-04-26T11:28:34.773Z,42848.00
2023-04-26T11:29:34.535Z,43936.00
2023-04-26T11:30:34.504Z,43520.00
2023-04-26T11:31:34.535Z,43360.00
2023-04-26T11:32:34.490Z,42752.00
2023-04-26T11:33:34.520Z,44800.00
2023-04-26T11:34:34.434Z,48480.00
2023-04-26T11:35:34.331Z,57120.00
2023-04-26T11:36:34.317Z,58592.00
2023-04-26T11:37:34.279Z,61920.00
2023-04-26T11:38:34.248Z,63584.00
2023-04-26T11:39:34.197Z,68576.00
2023-04-26T11:40:34.171Z,70336.00
2023-04-26T11:41:34.129Z,66656.00
2023-04-26T11:42:34.093Z,54976.00
2023-04-26T11:43:34.138Z,50496.00
2023-04-26T11:44:34.040Z,45952.00
2023-04-26T11:45:33.995Z,44384.00
2023-04-26T11:46:33.994Z,46080.00
2023-04-26T11:47:33.931Z,49344.00
2023-04-26T11:48:33.896Z,53120.00
2023-04-26T11:49:33.903Z,53440.00
2023-04-26T11:50:33.831Z,52480.00
2023-04-26T11:51:33.795Z,49440.00
2023-04-26T11:52:33.774Z,47488.00
2023-04-26T11:53:33.724Z,46240.00
2023-04-26T11:54:33.708Z,48288.00
2023-04-26T11:55:33.666Z,50816.00
2023-04-26T11:56:33.626Z,48096.00
2023-04-26T11:57:33.580Z,47296.00
2023-04-26T11:58:33.551Z,49984.00
2023-04-26T11:59:33.521Z,56384.00
2023-04-26T12:00:33.516Z,57440.00
2023-04-26T12:01:33.441Z,62944.00
2023-04-26T12:02:33.507Z,62528.00
2023-04-26T12:03:33.617Z,60960.00
2023-04-26T12:04:33.483Z,61856.00
2023-04-26T12:05:33.495Z,61056.00
2023-04-26T12:06:33.477Z,64064.00
2023-04-26T12:07:33.230Z,62688.00
2023-04-26T12:08:33.208Z,60256.00
2023-04-26T12:09:33.160Z,65952.00
2023-04-26T12:10:33.122Z,55200.00
2023-04-26T12:11:33.138Z,51776.00
2023-04-26T12:12:33.057Z,50272.00
2023-04-26T12:13:33.038Z,52608.00
2023-04-26T12:14:32.994Z,60992.00
2023-04-26T12:15:32.957Z,44512.00
2023-04-26T12:16:32.933Z,41760.00
2023-04-26T12:17:33.080Z,40192.00
2023-04-26T12:18:32.869Z,40192.00
2023-04-26T12:19:32.808Z,41888.00